createdAt,value
2019-01-23T00:01:54.357Z,100636.16
2019-01-23T00:04:23.965Z,100633.29
2019-01-23T00:06:53.582Z,100634.78
2019-01-23T00:09:23.202Z,100633.05
2019-01-23T00:11:52.867Z,100633.17
2019-01-23T00:14:22.443Z,100630.55
2019-01-23T00:16:51.958Z,100629.37
2019-01-23T00:19:21.492Z,100628.95
2019-01-23T00:21:51.110Z,100627.19
2019-01-23T00:24:20.688Z,100627.19
2019-01-23T00:26:50.235Z,100620.28
2019-01-23T00:29:19.879Z,100619.31
2019-01-23T00:31:49.693Z,100620.22
2019-01-23T00:34:19.234Z,100615.98
2019-01-23T00:36:48.787Z,100618.39
2019-01-23T00:39:18.437Z,100614.98
2019-01-23T00:41:47.975Z,100610.61
2019-01-23T00:44:17.640Z,100437.16
2019-01-23T00:46:47.386Z,100615.27
2019-01-23T00:49:16.984Z,100608.59
2019-01-23T00:51:46.781Z,100609.42
2019-01-23T00:54:16.442Z,100611.54
2019-01-23T00:56:45.989Z,100618.14
2019-01-23T00:59:15.580Z,100611.19
2019-01-23T01:01:45.162Z,100621.53
2019-01-23T01:04:14.851Z,100621.41
2019-01-23T01:06:44.499Z,100613.97
2019-01-23T01:09:14.112Z,100613.75
2019-01-23T01:11:43.765Z,100618.94
2019-01-23T01:14:13.380Z,100615.21
2019-01-23T01:16:42.880Z,100616.16
2019-01-23T01:19:12.736Z,100611.03
2019-01-23T01:21:44.008Z,100614.04
2019-01-23T01:24:13.620Z,100621.47
2019-01-23T01:26:43.123Z,100615.46
2019-01-23T01:29:12.913Z,100618.20
2019-01-23T01:31:42.464Z,100613.97
2019-01-23T01:34:12.282Z,100623.39
2019-01-23T01:36:41.898Z,100620.74
2019-01-23T01:39:11.566Z,100618.20
2019-01-23T01:41:41.064Z,100623.05
2019-01-23T01:44:10.649Z,100617.00
2019-01-23T01:46:40.139Z,100618.48
2019-01-23T01:49:09.865Z,100623.29
2019-01-23T01:51:39.608Z,100615.12
2019-01-23T01:54:09.140Z,100616.90
2019-01-23T01:56:38.680Z,100614.12
2019-01-23T01:59:08.307Z,100621.08
2019-01-23T02:13:37.482Z,100607.62
2019-01-23T02:19:39.373Z,100608.40
2019-01-23T02:22:46.454Z,100610.80
2019-01-23T02:25:16.653Z,100605.75
2019-01-23T02:27:47.359Z,100611.52
2019-01-23T02:36:56.429Z,100610.14
2019-01-23T02:39:26.324Z,100608.90
2019-01-23T02:41:56.496Z,100607.13
2019-01-23T03:08:05.886Z,100606.25
2019-01-23T03:10:35.833Z,100609.11
2019-01-23T03:13:05.475Z,100604.20
2019-01-23T03:15:35.533Z,100612.35
2019-01-23T03:18:05.592Z,100603.80
2019-01-23T03:20:35.767Z,100606.69
2019-01-23T03:23:05.875Z,100603.08
2019-01-23T03:25:36.082Z,100605.02
2019-01-23T03:28:06.380Z,100597.89
2019-01-23T03:30:36.161Z,100602.25
2019-01-23T03:33:06.173Z,100600.22
2019-01-23T03:35:36.376Z,100596.12
2019-01-23T03:38:06.553Z,100596.86
2019-01-23T03:40:36.730Z,100601.53
2019-01-23T03:43:06.746Z,100597.23
2019-01-23T03:45:36.672Z,100598.64
2019-01-23T03:48:06.585Z,100601.09
2019-01-23T03:50:36.554Z,100600.91
2019-01-23T03:53:06.754Z,100608.75
2019-01-23T03:55:37.033Z,100600.09
2019-01-23T03:58:07.166Z,100605.58
2019-01-23T04:00:36.994Z,100602.69
2019-01-23T04:03:07.199Z,100604.09
2019-01-23T04:05:36.937Z,100599.17
2019-01-23T04:08:06.958Z,100599.44
2019-01-23T04:10:36.920Z,100598.14
2019-01-23T04:13:06.812Z,100605.06
2019-01-23T04:15:36.926Z,100598.55
2019-01-23T04:18:06.958Z,100598.25
2019-01-23T04:20:37.024Z,100591.41
2019-01-23T04:23:07.108Z,100599.98
2019-01-23T04:25:37.228Z,100596.76
2019-01-23T04:28:07.245Z,100597.67
2019-01-23T04:54:10.817Z,100605.59
2019-01-23T05:13:16.218Z,100612.95
2019-01-23T05:15:46.364Z,100610.47
2019-01-23T05:32:28.440Z,100611.84
2019-01-23T06:10:16.205Z,100647.73
2019-01-23T06:12:46.107Z,100651.41
2019-01-23T06:15:16.301Z,100648.91
2019-01-23T06:17:46.364Z,100644.83
2019-01-23T06:20:18.123Z,100648.30
2019-01-23T06:57:16.981Z,100663.92
2019-01-23T06:59:46.868Z,100673.50
2019-01-23T07:02:16.656Z,100671.53
2019-01-23T07:25:39.616Z,100690.30
2019-01-23T07:28:09.579Z,100703.97
2019-01-23T07:30:41.635Z,100699.02
2019-01-23T07:33:11.838Z,100710.75
2019-01-23T07:35:41.509Z,100699.95
2019-01-23T07:38:11.267Z,100706.98
2019-01-23T07:41:01.438Z,100707.47
2019-01-23T07:43:31.372Z,100716.17
2019-01-23T08:29:26.899Z,100745.16
2019-01-23T08:31:57.180Z,100733.83
2019-01-23T08:34:27.301Z,100739.82
2019-01-23T08:36:57.192Z,100741.23
2019-01-23T08:39:27.036Z,100745.48
2019-01-23T08:41:57.344Z,100748.91
2019-01-23T08:44:27.126Z,100749.72
2019-01-23T08:46:57.085Z,100748.91
2019-01-23T08:52:14.552Z,100752.88
2019-01-23T08:54:44.293Z,100749.80
2019-01-23T08:57:14.434Z,100746.77
2019-01-23T08:59:44.147Z,100757.12
2019-01-23T09:02:14.038Z,100762.41
2019-01-23T09:04:43.707Z,100762.30
2019-01-23T09:07:13.453Z,100758.62
2019-01-23T09:09:43.130Z,100589.89
2019-01-23T09:12:13.209Z,100763.34
2019-01-23T09:17:18.433Z,100771.11
2019-01-23T09:22:36.440Z,100778.87
2019-01-23T09:25:07.487Z,100780.80
2019-01-23T09:27:37.735Z,100783.55
2019-01-23T09:33:57.579Z,100784.77
2019-01-23T09:40:15.927Z,100778.61
2019-01-23T09:46:45.980Z,100770.98
2019-01-23T09:49:42.361Z,100777.06
2019-01-23T09:52:21.899Z,100777.59
2019-01-23T09:54:51.866Z,100776.44
2019-01-23T09:57:21.611Z,100776.10
2019-01-23T09:59:51.255Z,100772.33
2019-01-23T10:02:20.944Z,100776.10
2019-01-23T10:04:50.753Z,100778.25
2019-01-23T10:07:20.773Z,100786.38
2019-01-23T10:09:50.697Z,100787.25
2019-01-23T10:18:08.786Z,100790.88
2019-01-23T10:20:38.606Z,100793.02
2019-01-23T10:23:08.221Z,100795.47
2019-01-23T10:25:38.148Z,100800.28
2019-01-23T10:28:07.914Z,100804.95
2019-01-23T10:30:37.966Z,100797.20
2019-01-23T10:33:08.120Z,100797.09
2019-01-23T10:35:38.514Z,100805.50
2019-01-23T10:38:08.152Z,100803.43
2019-01-23T10:40:37.937Z,100804.95
2019-01-23T10:43:08.014Z,100799.17
2019-01-23T10:45:37.982Z,100808.35
2019-01-23T10:48:08.179Z,100804.28
2019-01-23T10:53:54.416Z,100803.80
2019-01-23T10:59:11.679Z,100793.58
2019-01-23T11:01:41.391Z,100794.98
2019-01-23T11:04:11.238Z,100797.36
2019-01-23T11:06:41.193Z,100802.39
2019-01-23T11:09:11.081Z,100799.14
2019-01-23T11:11:40.962Z,100799.50
2019-01-23T11:14:10.828Z,100808.39
2019-01-23T11:16:40.683Z,100802.87
2019-01-23T11:19:10.518Z,100799.50
2019-01-23T11:21:40.209Z,100799.87
2019-01-23T11:24:09.918Z,100806.39
2019-01-23T11:26:39.681Z,100804.62
2019-01-23T11:29:09.603Z,100794.40
2019-01-23T11:31:39.413Z,100798.10
2019-01-23T11:34:09.627Z,100801.62
2019-01-23T11:36:39.723Z,100792.87
2019-01-23T11:39:10.463Z,100804.62
2019-01-23T11:41:40.013Z,100805.65
2019-01-23T11:44:10.977Z,100804.88
2019-01-23T11:46:41.581Z,100804.05
2019-01-23T11:49:11.632Z,100813.42
2019-01-23T11:51:41.654Z,100806.17
2019-01-23T11:54:11.459Z,100810.75
2019-01-23T11:56:41.240Z,100803.58
2019-01-23T11:59:10.893Z,100809.02
2019-01-23T12:01:40.708Z,100810.05
2019-01-23T12:04:10.619Z,100818.14
2019-01-23T12:06:40.276Z,100819.47
2019-01-23T12:12:25.026Z,100797.69
2019-01-23T12:14:54.938Z,100808.72
2019-01-23T12:17:24.733Z,100805.20
2019-01-23T12:22:30.247Z,100774.78
2019-01-23T12:25:00.275Z,100805.77
2019-01-23T12:27:30.210Z,100805.62
2019-01-23T12:30:00.203Z,100807.09
2019-01-23T12:32:30.252Z,100805.09
2019-01-23T12:35:00.453Z,100809.50
2019-01-23T12:43:01.895Z,100810.20
2019-01-23T12:48:37.648Z,100810.06
2019-01-23T12:51:07.452Z,100813.76
2019-01-23T12:53:37.335Z,100813.84
2019-01-23T12:56:07.218Z,100820.27
2019-01-23T12:58:37.011Z,100821.98
2019-01-23T13:01:06.622Z,100823.64
2019-01-23T13:03:36.556Z,100828.27
2019-01-23T13:06:06.668Z,100825.76
2019-01-23T13:08:36.218Z,100820.23
2019-01-23T13:11:26.430Z,100820.42
2019-01-23T13:13:56.349Z,100824.94
2019-01-23T13:16:26.201Z,100830.78
2019-01-23T13:18:56.340Z,100843.48
2019-01-23T13:21:26.511Z,100843.34
2019-01-23T13:23:56.214Z,100845.73
2019-01-23T13:26:26.353Z,100843.67
2019-01-23T13:28:56.283Z,100844.41
2019-01-23T13:31:26.253Z,100850.20
2019-01-23T13:33:56.045Z,100846.31
2019-01-23T13:36:26.222Z,100851.81
2019-01-23T13:38:56.004Z,100850.51
2019-01-23T13:41:25.673Z,100849.88
2019-01-23T13:43:55.856Z,100863.39
2019-01-23T13:46:26.243Z,100859.79
2019-01-23T13:51:31.148Z,100863.27
2019-01-23T13:54:01.228Z,100860.03
2019-01-23T13:56:30.991Z,100862.50
2019-01-23T13:59:00.981Z,100859.51
2019-01-23T14:01:30.803Z,100861.73
2019-01-23T14:06:51.003Z,100857.73
2019-01-23T14:09:20.704Z,100849.47
2019-01-23T14:11:50.269Z,100850.53
2019-01-23T14:14:19.953Z,100860.68
2019-01-23T14:16:49.665Z,100859.84
2019-01-23T14:25:57.945Z,100859.75
2019-01-23T14:28:27.492Z,100870.31
2019-01-23T14:30:57.451Z,100869.26
2019-01-23T14:33:27.721Z,100871.04
2019-01-23T14:35:57.398Z,100867.87
2019-01-23T14:38:27.504Z,100873.30
2019-01-23T14:40:57.727Z,100875.06
2019-01-23T14:43:27.461Z,100873.24
2019-01-23T14:45:57.847Z,100872.23
2019-01-23T14:48:29.287Z,100869.20
2019-01-23T14:50:59.110Z,100873.67
2019-01-23T14:53:29.356Z,100877.19
2019-01-23T14:55:59.368Z,100876.88
2019-01-23T14:58:29.236Z,100877.17
2019-01-23T15:00:59.454Z,100882.34
2019-01-23T15:03:29.253Z,100879.43
2019-01-23T15:05:59.313Z,100887.67
2019-01-23T15:08:29.503Z,100886.46
2019-01-23T15:11:00.702Z,100888.52
2019-01-23T15:13:30.879Z,100889.20
2019-01-23T15:16:01.045Z,100895.41
2019-01-23T15:18:31.251Z,100900.98
2019-01-23T15:21:01.353Z,100898.36
2019-01-23T15:23:31.521Z,100901.66
2019-01-23T15:26:01.466Z,100904.47
2019-01-23T15:28:31.607Z,100907.28
2019-01-23T15:31:01.750Z,100910.63
2019-01-23T15:33:31.586Z,100903.50
2019-01-23T15:36:01.613Z,100911.42
2019-01-23T15:38:31.428Z,100907.99
2019-01-23T15:41:20.032Z,100909.39
2019-01-23T15:43:49.734Z,100901.86
2019-01-23T15:46:19.972Z,100900.66
2019-01-23T15:48:50.012Z,100912.07
2019-01-23T15:51:19.855Z,100905.95
2019-01-23T15:53:49.646Z,100910.64
2019-01-23T15:59:50.665Z,100910.23
2019-01-23T16:02:24.299Z,100914.73
2019-01-23T16:05:10.777Z,100916.35
2019-01-23T16:07:40.721Z,100921.52
2019-01-23T16:10:12.458Z,100926.52
2019-01-23T16:13:03.059Z,100931.73
2019-01-23T16:18:30.364Z,100933.28
2019-01-23T16:21:00.240Z,100939.36
2019-01-23T16:23:30.167Z,100938.87
2019-01-23T16:26:01.050Z,100941.22
2019-01-23T16:28:30.691Z,100949.44
2019-01-23T16:31:00.589Z,100953.22
2019-01-23T16:33:30.295Z,100959.41
2019-01-23T16:36:00.455Z,100955.80
2019-01-23T16:38:30.671Z,100963.56
2019-01-23T16:41:01.609Z,100962.92
2019-01-23T16:43:32.840Z,100963.96
2019-01-23T16:46:03.147Z,100967.66
2019-01-23T16:48:36.571Z,100968.24
2019-01-23T16:51:06.776Z,100973.83
2019-01-23T16:53:36.657Z,100974.62
2019-01-23T16:56:06.594Z,100978.16
2019-01-23T16:58:36.364Z,100973.83
2019-01-23T17:01:06.050Z,100976.84
2019-01-23T17:03:36.071Z,100948.83
2019-01-23T17:06:06.004Z,100982.56
2019-01-23T17:14:23.649Z,100990.81
2019-01-23T17:19:51.979Z,100980.60
2019-01-23T17:22:21.926Z,100985.86
2019-01-23T17:24:51.575Z,100983.54
2019-01-23T17:29:56.725Z,100990.42
2019-01-23T17:32:28.002Z,100991.61
2019-01-23T17:34:59.333Z,100994.51
2019-01-23T17:37:30.044Z,100997.17
2019-01-23T17:40:00.097Z,100997.64
2019-01-23T17:42:30.209Z,100998.48
2019-01-23T17:45:00.242Z,100993.77
2019-01-23T17:47:30.328Z,100992.48
2019-01-23T17:50:00.717Z,100991.27
2019-01-23T17:52:30.736Z,100990.98
2019-01-23T17:55:00.446Z,100998.52
2019-01-23T17:57:30.211Z,100995.94
2019-01-23T18:00:00.433Z,101000.97
2019-01-23T18:02:30.358Z,101005.34
2019-01-23T18:05:00.412Z,101007.09
2019-01-23T18:07:30.693Z,101009.08
2019-01-23T18:10:00.590Z,101004.60
2019-01-23T18:12:30.595Z,101005.95
2019-01-23T18:15:00.790Z,101009.34
2019-01-23T18:17:31.112Z,101011.12
2019-01-23T18:20:01.181Z,101020.24
2019-01-23T18:22:31.374Z,101020.36
2019-01-23T18:25:01.453Z,101014.79
2019-01-23T18:27:31.280Z,101020.09
2019-01-23T18:30:01.718Z,101024.03
2019-01-23T18:32:31.846Z,101024.44
2019-01-23T18:35:38.872Z,101029.14
2019-01-23T18:42:14.498Z,101033.42
2019-01-23T18:45:15.883Z,101044.76
2019-01-23T18:48:17.506Z,101034.37
2019-01-23T18:51:07.886Z,101042.17
2019-01-23T18:59:59.149Z,101033.87
2019-01-23T19:08:15.601Z,101045.45
2019-01-23T19:10:45.197Z,101046.34
2019-01-23T19:16:04.253Z,101053.39
2019-01-23T19:21:22.659Z,101058.70
2019-01-23T19:23:52.382Z,101043.75
2019-01-23T19:26:22.282Z,101052.16
2019-01-23T19:28:52.444Z,101050.25
2019-01-23T19:31:22.095Z,101055.21
2019-01-23T19:34:11.002Z,101052.69
2019-01-23T19:36:40.773Z,101050.25
2019-01-23T19:39:39.000Z,101058.66
2019-01-23T19:42:09.557Z,101055.13
2019-01-23T19:44:39.591Z,101059.34
2019-01-23T19:47:09.569Z,101066.95
2019-01-23T19:49:39.806Z,101063.44
2019-01-23T19:52:09.770Z,101066.70
2019-01-23T19:57:22.732Z,101066.70
2019-01-23T19:59:52.514Z,101067.19
2019-01-23T20:02:22.218Z,101078.07
2019-01-23T20:07:27.120Z,101072.74
2019-01-23T20:09:57.239Z,101075.04
2019-01-23T20:15:48.633Z,101042.33
2019-01-23T20:21:32.793Z,101083.70
2019-01-23T20:24:02.867Z,101089.70
2019-01-23T20:26:32.645Z,101088.27
2019-01-23T20:29:21.585Z,101090.98
2019-01-23T20:31:51.386Z,101096.89
2019-01-23T20:34:21.163Z,101097.69
2019-01-23T20:39:26.469Z,101098.48
2019-01-23T20:41:56.282Z,101099.52
2019-01-23T20:44:26.304Z,101104.03
2019-01-23T20:46:56.383Z,100970.28
2019-01-23T20:49:45.018Z,101105.66
2019-01-23T20:52:15.268Z,101112.45
2019-01-23T20:54:45.271Z,101120.39
2019-01-23T20:57:15.345Z,101114.24
2019-01-23T20:59:45.145Z,101117.03
2019-01-23T21:02:15.020Z,101116.14
2019-01-23T21:04:56.723Z,101123.39
2019-01-23T21:10:42.493Z,101124.94
2019-01-23T21:16:43.399Z,101126.89
2019-01-23T21:19:13.318Z,101128.91
2019-01-23T21:21:43.191Z,101127.16
2019-01-23T21:24:12.975Z,101137.75
2019-01-23T21:26:43.028Z,101137.23
2019-01-23T21:29:12.586Z,101138.24
2019-01-23T21:31:42.508Z,101145.87
2019-01-23T21:37:07.353Z,101146.02
2019-01-23T21:39:56.004Z,101145.84
2019-01-23T21:42:26.187Z,101146.45
2019-01-23T21:45:16.173Z,101151.38
2019-01-23T21:47:46.306Z,101151.95
2019-01-23T21:59:20.160Z,101159.64
2019-01-23T22:02:10.817Z,101158.75
2019-01-23T22:04:59.871Z,101162.98
2019-01-23T22:10:51.185Z,101166.16
2019-01-23T22:13:20.781Z,101167.48
2019-01-23T22:15:50.648Z,101169.78
2019-01-23T22:24:10.374Z,101176.92
2019-01-23T22:26:40.303Z,101169.19
2019-01-23T22:29:11.742Z,101168.67
2019-01-23T22:31:41.404Z,101170.73
2019-01-23T22:34:11.207Z,101180.05
2019-01-23T22:36:41.478Z,101177.52
2019-01-23T22:39:11.208Z,101181.58
2019-01-23T22:44:29.929Z,101177.09
2019-01-23T22:47:18.560Z,101181.13
2019-01-23T22:49:48.231Z,101185.18
2019-01-23T22:52:17.833Z,101183.36
2019-01-23T22:54:48.010Z,101185.42
2019-01-23T23:06:18.790Z,101190.84
2019-01-23T23:12:13.785Z,101203.50
2019-01-23T23:14:43.541Z,101202.23
2019-01-23T23:17:13.242Z,101209.48
2019-01-23T23:19:42.865Z,101210.92
2019-01-23T23:22:13.183Z,101209.66
2019-01-23T23:24:42.885Z,101215.81
2019-01-23T23:36:08.128Z,101207.47
2019-01-23T23:41:33.455Z,101211.97
2019-01-23T23:44:42.176Z,101207.47
2019-01-23T23:47:12.198Z,101211.84
2019-01-23T23:52:29.235Z,101222.45
2019-01-23T23:54:58.994Z,101224.23
